sensor_id;sensor_type;location;lat;lon;timestamp;pressure;altitude;pressure_sealevel;temperature;humidity
73594;BME280;64760;53.404;23.498;2022-12-10T00:00:15;98881.16;;;-0.75;97.61
73594;BME280;64760;53.404;23.498;2022-12-10T00:03:01;98874.44;;;-0.87;97.74
73594;BME280;64760;53.404;23.498;2022-12-10T00:05:28;98872.22;;;-0.91;98.67
73594;BME280;64760;53.404;23.498;2022-12-10T00:07:54;98864.50;;;-0.93;98.52
73594;BME280;64760;53.404;23.498;2022-12-10T00:10:20;98858.44;;;-1.03;99.00
73594;BME280;64760;53.404;23.498;2022-12-10T00:12:46;98862.69;;;-0.92;98.58
73594;BME280;64760;53.404;23.498;2022-12-10T00:15:13;98874.44;;;-0.87;98.73
73594;BME280;64760;53.404;23.498;2022-12-10T00:17:39;98869.75;;;-0.93;98.58
73594;BME280;64760;53.404;23.498;2022-12-10T00:20:06;98864.50;;;-0.93;99.00
73594;BME280;64760;53.404;23.498;2022-12-10T00:22:32;98852.91;;;-1.00;98.91
73594;BME280;64760;53.404;23.498;2022-12-10T00:24:59;98863.03;;;-1.05;98.72
73594;BME280;64760;53.404;23.498;2022-12-10T00:27:25;98858.72;;;-1.06;98.66
73594;BME280;64760;53.404;23.498;2022-12-10T00:29:51;98869.13;;;-1.05;98.65
73594;BME280;64760;53.404;23.498;2022-12-10T00:32:18;98865.13;;;-1.09;98.37
73594;BME280;64760;53.404;23.498;2022-12-10T00:34:44;98863.16;;;-1.07;98.24
73594;BME280;64760;53.404;23.498;2022-12-10T00:37:11;98849.47;;;-1.10;97.82
73594;BME280;64760;53.404;23.498;2022-12-10T00:39:37;98858.44;;;-1.03;97.68
73594;BME280;64760;53.404;23.498;2022-12-10T00:42:04;98855.03;;;-1.13;98.20
73594;BME280;64760;53.404;23.498;2022-12-10T00:44:30;98863.44;;;-1.00;97.78
73594;BME280;64760;53.404;23.498;2022-12-10T00:46:56;98868.69;;;-1.00;97.49
73594;BME280;64760;53.404;23.498;2022-12-10T00:49:23;98848.22;;;-1.06;97.22
73594;BME280;64760;53.404;23.498;2022-12-10T00:51:50;98861.34;;;-0.97;96.82
73594;BME280;64760;53.404;23.498;2022-12-10T00:54:17;98867.56;;;-0.98;96.90
73594;BME280;64760;53.404;23.498;2022-12-10T00:56:43;98867.31;;;-1.04;96.67
73594;BME280;64760;53.404;23.498;2022-12-10T00:59:09;98869.53;;;-1.09;96.74
73594;BME280;64760;53.404;23.498;2022-12-10T01:01:38;98856.97;;;-1.15;96.79
73594;BME280;64760;53.404;23.498;2022-12-10T01:04:08;98860.28;;;-1.13;96.67
73594;BME280;64760;53.404;23.498;2022-12-10T01:06:44;98869.56;;;-1.19;96.78
73594;BME280;64760;53.404;23.498;2022-12-10T01:09:13;98865.69;;;-1.15;96.54
73594;BME280;64760;53.404;23.498;2022-12-10T01:11:41;98859.59;;;-1.15;96.54
73594;BME280;64760;53.404;23.498;2022-12-10T01:17:38;98844.97;;;-1.27;96.50
73594;BME280;64760;53.404;23.498;2022-12-10T01:20:05;98842.34;;;-1.27;96.29
73594;BME280;64760;53.404;23.498;2022-12-10T01:22:31;98847.16;;;-1.23;96.44
73594;BME280;64760;53.404;23.498;2022-12-10T01:24:58;98844.13;;;-1.18;96.48
73594;BME280;64760;53.404;23.498;2022-12-10T01:27:29;98844.41;;;-1.21;97.18
73594;BME280;64760;53.404;23.498;2022-12-10T01:29:56;98829.19;;;-1.27;97.11
73594;BME280;64760;53.404;23.498;2022-12-10T01:32:22;98841.88;;;-1.13;97.25
73594;BME280;64760;53.404;23.498;2022-12-10T01:34:49;98793.94;;;-1.34;97.28
73594;BME280;64760;53.404;23.498;2022-12-10T01:37:15;98825.19;;;-1.22;97.58
73594;BME280;64760;53.404;23.498;2022-12-10T01:39:43;98811.50;;;-1.25;97.57
73594;BME280;64760;53.404;23.498;2022-12-10T01:42:12;98831.38;;;-1.13;97.49
73594;BME280;64760;53.404;23.498;2022-12-10T01:47:09;98808.03;;;-1.26;98.01
73594;BME280;64760;53.404;23.498;2022-12-10T01:49:38;98812.88;;;-1.21;98.33
73594;BME280;64760;53.404;23.498;2022-12-10T01:52:07;98803.00;;;-1.19;98.13
73594;BME280;64760;53.404;23.498;2022-12-10T01:54:41;98810.78;;;-1.18;98.02
73594;BME280;64760;53.404;23.498;2022-12-10T01:57:11;98799.03;;;-1.23;97.92
73594;BME280;64760;53.404;23.498;2022-12-10T01:59:39;98798.34;;;-1.25;98.55
73594;BME280;64760;53.404;23.498;2022-12-10T02:02:14;98807.00;;;-1.15;98.71
73594;BME280;64760;53.404;23.498;2022-12-10T02:15:25;98797.09;;;-1.21;99.05
73594;BME280;64760;53.404;23.498;2022-12-10T02:17:54;98800.28;;;-1.27;99.09
73594;BME280;64760;53.404;23.498;2022-12-10T02:20:36;98793.53;;;-1.30;99.05
73594;BME280;64760;53.404;23.498;2022-12-10T02:23:11;98789.69;;;-1.35;98.88
73594;BME280;64760;53.404;23.498;2022-12-10T02:28:50;98803.63;;;-1.35;99.04
73594;BME280;64760;53.404;23.498;2022-12-10T02:31:23;98789.53;;;-1.34;99.44
73594;BME280;64760;53.404;23.498;2022-12-10T02:33:55;98775.03;;;-1.38;99.40
73594;BME280;64760;53.404;23.498;2022-12-10T02:36:26;98786.06;;;-1.34;99.46
73594;BME280;64760;53.404;23.498;2022-12-10T02:38:56;98773.94;;;-1.35;99.29
73594;BME280;64760;53.404;23.498;2022-12-10T02:41:32;98788.31;;;-1.39;99.76
73594;BME280;64760;53.404;23.498;2022-12-10T02:44:03;98787.50;;;-1.40;100.00
73594;BME280;64760;53.404;23.498;2022-12-10T02:46:32;98785.28;;;-1.45;100.00
73594;BME280;64760;53.404;23.498;2022-12-10T02:49:04;98778.66;;;-1.49;99.82
73594;BME280;64760;53.404;23.498;2022-12-10T02:51:33;98786.78;;;-1.42;100.00
73594;BME280;64760;53.404;23.498;2022-12-10T02:54:31;98777.25;;;-1.43;100.00
73594;BME280;64760;53.404;23.498;2022-12-10T02:57:00;98768.72;;;-1.55;100.00
73594;BME280;64760;53.404;23.498;2022-12-10T03:07:16;98785.72;;;-1.49;100.00
73594;BME280;64760;53.404;23.498;2022-12-10T03:09:51;98777.59;;;-1.56;99.49
73594;BME280;64760;53.404;23.498;2022-12-10T03:12:29;98790.56;;;-1.45;99.19
73594;BME280;64760;53.404;23.498;2022-12-10T03:15:03;98781.00;;;-1.46;99.00
73594;BME280;64760;53.404;23.498;2022-12-10T03:17:31;98779.88;;;-1.43;98.70
73594;BME280;64760;53.404;23.498;2022-12-10T03:19:58;98785.00;;;-1.42;98.26
73594;BME280;64760;53.404;23.498;2022-12-10T03:22:26;98783.94;;;-1.49;98.28
73594;BME280;64760;53.404;23.498;2022-12-10T03:24:53;98768.72;;;-1.55;98.47
73594;BME280;64760;53.404;23.498;2022-12-10T03:27:21;98788.88;;;-1.46;98.41
73594;BME280;64760;53.404;23.498;2022-12-10T03:29:51;98798.00;;;-1.40;97.95
73594;BME280;64760;53.404;23.498;2022-12-10T03:32:20;98784.34;;;-1.44;97.86
73594;BME280;64760;53.404;23.498;2022-12-10T03:34:48;98775.44;;;-1.43;98.15
73594;BME280;64760;53.404;23.498;2022-12-10T03:37:17;98782.91;;;-1.38;98.02
73594;BME280;64760;53.404;23.498;2022-12-10T03:39:44;98777.25;;;-1.43;97.98
73594;BME280;64760;53.404;23.498;2022-12-10T03:42:11;98778.81;;;-1.50;97.89
73594;BME280;64760;53.404;23.498;2022-12-10T03:44:38;98796.47;;;-1.43;97.69
73594;BME280;64760;53.404;23.498;2022-12-10T03:47:11;98796.88;;;-1.37;97.68
73594;BME280;64760;53.404;23.498;2022-12-10T03:49:38;98789.84;;;-1.47;97.73
73594;BME280;64760;53.404;23.498;2022-12-10T03:52:04;98787.50;;;-1.40;97.39
73594;BME280;64760;53.404;23.498;2022-12-10T03:54:31;98778.06;;;-1.43;97.59
73594;BME280;64760;53.404;23.498;2022-12-10T03:56:58;98774.91;;;-1.46;97.77
73594;BME280;64760;53.404;23.498;2022-12-10T03:59:24;98762.59;;;-1.46;97.33
73594;BME280;64760;53.404;23.498;2022-12-10T04:01:50;98776.28;;;-1.42;97.63
73594;BME280;64760;53.404;23.498;2022-12-10T04:04:17;98786.97;;;-1.44;97.73
73594;BME280;64760;53.404;23.498;2022-12-10T04:06:43;98775.63;;;-1.44;97.71
73594;BME280;64760;53.404;23.498;2022-12-10T04:09:12;98776.72;;;-1.47;97.75
73594;BME280;64760;53.404;23.498;2022-12-10T04:11:39;98771.75;;;-1.50;97.87
73594;BME280;64760;53.404;23.498;2022-12-10T04:14:05;98768.72;;;-1.55;97.84
73594;BME280;64760;53.404;23.498;2022-12-10T04:16:50;98788.59;;;-1.43;97.52
73594;BME280;64760;53.404;23.498;2022-12-10T04:19:18;98775.34;;;-1.51;97.99
73594;BME280;64760;53.404;23.498;2022-12-10T04:21:45;98758.50;;;-1.58;98.02
73594;BME280;64760;53.404;23.498;2022-12-10T04:24:35;98769.56;;;-1.54;97.69
73594;BME280;64760;53.404;23.498;2022-12-10T04:27:32;98777.00;;;-1.50;97.93
73594;BME280;64760;53.404;23.498;2022-12-10T04:29:59;98772.03;;;-1.53;97.58
73594;BME280;64760;53.404;23.498;2022-12-10T04:32:27;98780.88;;;-1.44;97.59
73594;BME280;64760;53.404;23.498;2022-12-10T04:34:54;98782.38;;;-1.42;97.19
73594;BME280;64760;53.404;23.498;2022-12-10T04:37:22;98781.00;;;-1.46;97.46
73594;BME280;64760;53.404;23.498;2022-12-10T04:39:51;98785.72;;;-1.49;97.43
73594;BME280;64760;53.404;23.498;2022-12-10T04:42:20;98787.75;;;-1.43;97.44
73594;BME280;64760;53.404;23.498;2022-12-10T04:44:47;98764.84;;;-1.51;96.78
73594;BME280;64760;53.404;23.498;2022-12-10T04:47:14;98768.59;;;-1.53;97.23
73594;BME280;64760;53.404;23.498;2022-12-10T04:49:40;98769.53;;;-1.45;97.26
73594;BME280;64760;53.404;23.498;2022-12-10T04:52:09;98769.94;;;-1.49;97.07
73594;BME280;64760;53.404;23.498;2022-12-10T04:54:36;98786.97;;;-1.44;97.42
73594;BME280;64760;53.404;23.498;2022-12-10T04:57:02;98774.78;;;-1.45;96.99
73594;BME280;64760;53.404;23.498;2022-12-10T04:59:29;98783.50;;;-1.44;96.65
73594;BME280;64760;53.404;23.498;2022-12-10T05:01:55;98768.44;;;-1.52;97.44
73594;BME280;64760;53.404;23.498;2022-12-10T05:04:21;98781.69;;;-1.44;97.15
73594;BME280;64760;53.404;23.498;2022-12-10T05:06:51;98779.34;;;-1.47;96.57
73594;BME280;64760;53.404;23.498;2022-12-10T05:09:20;98774.78;;;-1.45;96.82
73594;BME280;64760;53.404;23.498;2022-12-10T05:11:47;98774.88;;;-1.36;96.52
73594;BME280;64760;53.404;23.498;2022-12-10T05:17:44;98765.66;;;-1.50;96.56
73594;BME280;64760;53.404;23.498;2022-12-10T05:20:10;98777.25;;;-1.43;96.20
73594;BME280;64760;53.404;23.498;2022-12-10T05:22:37;98776.16;;;-1.40;96.10
73594;BME280;64760;53.404;23.498;2022-12-10T05:25:22;98762.47;;;-1.44;96.06
73594;BME280;64760;53.404;23.498;2022-12-10T05:27:48;98775.03;;;-1.38;96.16
73594;BME280;64760;53.404;23.498;2022-12-10T05:30:14;98766.75;;;-1.43;95.96
73594;BME280;64760;53.404;23.498;2022-12-10T05:32:41;98778.06;;;-1.43;96.01
73594;BME280;64760;53.404;23.498;2022-12-10T05:35:07;98763.19;;;-1.52;96.17
73594;BME280;64760;53.404;23.498;2022-12-10T05:37:34;98773.81;;;-1.44;95.77
73594;BME280;64760;53.404;23.498;2022-12-10T05:40:03;98781.41;;;-1.40;95.57
73594;BME280;64760;53.404;23.498;2022-12-10T05:45:51;98790.00;;;-1.48;95.36
73594;BME280;64760;53.404;23.498;2022-12-10T05:48:17;98780.88;;;-1.54;95.48
73594;BME280;64760;53.404;23.498;2022-12-10T05:50:43;98778.25;;;-1.54;95.81
73594;BME280;64760;53.404;23.498;2022-12-10T05:53:12;98787.28;;;-1.56;95.59
73594;BME280;64760;53.404;23.498;2022-12-10T05:55:40;98786.88;;;-1.61;95.58
73594;BME280;64760;53.404;23.498;2022-12-10T05:58:07;98795.69;;;-1.53;96.10
73594;BME280;64760;53.404;23.498;2022-12-10T06:00:34;98778.84;;;-1.60;96.06
73594;BME280;64760;53.404;23.498;2022-12-10T06:03:00;98788.78;;;-1.54;95.45
73594;BME280;64760;53.404;23.498;2022-12-10T06:05:27;98785.19;;;-1.53;94.88
73594;BME280;64760;53.404;23.498;2022-12-10T06:07:53;98782.97;;;-1.48;94.76
73594;BME280;64760;53.404;23.498;2022-12-10T06:10:19;98784.75;;;-1.48;94.52
73594;BME280;64760;53.404;23.498;2022-12-10T06:12:46;98791.09;;;-1.51;94.49
73594;BME280;64760;53.404;23.498;2022-12-10T06:15:12;98794.44;;;-1.49;94.30
73594;BME280;64760;53.404;23.498;2022-12-10T06:17:38;98787.28;;;-1.56;94.42
73594;BME280;64760;53.404;23.498;2022-12-10T06:20:05;98785.38;;;-1.64;94.66
73594;BME280;64760;53.404;23.498;2022-12-10T06:22:33;98796.25;;;-1.59;94.72
73594;BME280;64760;53.404;23.498;2022-12-10T06:25:00;98791.81;;;-1.58;94.82
73594;BME280;64760;53.404;23.498;2022-12-10T06:27:29;98797.25;;;-1.60;95.25
73594;BME280;64760;53.404;23.498;2022-12-10T06:29:57;98799.34;;;-1.63;95.38
73594;BME280;64760;53.404;23.498;2022-12-10T06:32:25;98776.56;;;-1.82;95.32
73594;BME280;64760;53.404;23.498;2022-12-10T06:38:22;98782.63;;;-1.91;96.07
73594;BME280;64760;53.404;23.498;2022-12-10T06:40:49;98792.88;;;-1.88;96.24
73594;BME280;64760;53.404;23.498;2022-12-10T06:43:15;98788.19;;;-1.84;96.49
73594;BME280;64760;53.404;23.498;2022-12-10T06:45:42;98784.00;;;-1.87;96.11
73594;BME280;64760;53.404;23.498;2022-12-10T06:48:09;98782.38;;;-1.88;96.24
73594;BME280;64760;53.404;23.498;2022-12-10T06:50:36;98790.50;;;-1.81;96.38
73594;BME280;64760;53.404;23.498;2022-12-10T06:53:02;98792.19;;;-1.80;96.10
73594;BME280;64760;53.404;23.498;2022-12-10T06:55:29;98785.28;;;-1.91;96.49
73594;BME280;64760;53.404;23.498;2022-12-10T06:57:57;98789.84;;;-1.83;96.16
73594;BME280;64760;53.404;23.498;2022-12-10T07:00:24;98798.81;;;-1.86;96.00
73594;BME280;64760;53.404;23.498;2022-12-10T07:02:51;98810.19;;;-1.95;96.68
73594;BME280;64760;53.404;23.498;2022-12-10T07:05:18;98797.06;;;-1.95;97.25
73594;BME280;64760;53.404;23.498;2022-12-10T07:07:45;98794.31;;;-2.03;97.25
73594;BME280;64760;53.404;23.498;2022-12-10T07:10:12;98764.75;;;-2.24;97.70
73594;BME280;64760;53.404;23.498;2022-12-10T07:12:38;98791.81;;;-2.14;97.92
73594;BME280;64760;53.404;23.498;2022-12-10T07:15:05;98788.91;;;-2.11;97.83
73594;BME280;64760;53.404;23.498;2022-12-10T07:17:32;98794.84;;;-2.09;97.84
73594;BME280;64760;53.404;23.498;2022-12-10T07:19:59;98798.84;;;-2.05;98.14
73594;BME280;64760;53.404;23.498;2022-12-10T07:22:25;98804.09;;;-1.96;97.64
73594;BME280;64760;53.404;23.498;2022-12-10T07:24:51;98789.59;;;-2.00;97.25
73594;BME280;64760;53.404;23.498;2022-12-10T07:27:18;98807.56;;;-1.95;97.71
73594;BME280;64760;53.404;23.498;2022-12-10T07:29:44;98801.88;;;-2.00;97.65
73594;BME280;64760;53.404;23.498;2022-12-10T07:32:11;98807.56;;;-2.05;97.22
73594;BME280;64760;53.404;23.498;2022-12-10T07:34:38;98813.06;;;-1.98;97.23
73594;BME280;64760;53.404;23.498;2022-12-10T07:37:04;98800.94;;;-1.99;97.43
73594;BME280;64760;53.404;23.498;2022-12-10T07:39:31;98793.31;;;-2.02;97.39
73594;BME280;64760;53.404;23.498;2022-12-10T07:41:57;98783.50;;;-2.10;97.72
73594;BME280;64760;53.404;23.498;2022-12-10T07:44:25;98788.75;;;-2.10;97.55
73594;BME280;64760;53.404;23.498;2022-12-10T07:46:53;98798.72;;;-2.04;97.49
73594;BME280;64760;53.404;23.498;2022-12-10T07:49:20;98800.09;;;-2.19;97.92
73594;BME280;64760;53.404;23.498;2022-12-10T07:51:49;98798.72;;;-2.04;98.06
73594;BME280;64760;53.404;23.498;2022-12-10T07:54:17;98801.34;;;-2.04;98.11
73594;BME280;64760;53.404;23.498;2022-12-10T07:59:55;98796.50;;;-2.08;98.13
73594;BME280;64760;53.404;23.498;2022-12-10T08:02:21;98798.97;;;-2.07;98.17
73594;BME280;64760;53.404;23.498;2022-12-10T08:04:48;98793.59;;;-2.15;98.44
73594;BME280;64760;53.404;23.498;2022-12-10T08:07:14;98781.84;;;-2.11;98.49
73594;BME280;64760;53.404;23.498;2022-12-10T08:09:41;98785.59;;;-2.13;98.52
73594;BME280;64760;53.404;23.498;2022-12-10T08:12:07;98790.69;;;-2.02;98.68
73594;BME280;64760;53.404;23.498;2022-12-10T08:14:33;98782.97;;;-2.13;98.88
73594;BME280;64760;53.404;23.498;2022-12-10T08:17:02;98802.19;;;-2.13;98.47
73594;BME280;64760;53.404;23.498;2022-12-10T08:19:29;98799.84;;;-2.16;99.42
73594;BME280;64760;53.404;23.498;2022-12-10T08:21:55;98791.25;;;-2.18;98.96
73594;BME280;64760;53.404;23.498;2022-12-10T08:24:22;98802.59;;;-2.17;99.04
73594;BME280;64760;53.404;23.498;2022-12-10T08:26:48;98811.84;;;-2.13;98.94
73594;BME280;64760;53.404;23.498;2022-12-10T08:29:15;98814.06;;;-2.09;98.26
73594;BME280;64760;53.404;23.498;2022-12-10T08:35:01;98820.28;;;-2.00;97.61
73594;BME280;64760;53.404;23.498;2022-12-10T08:37:27;98803.69;;;-2.10;97.51
73594;BME280;64760;53.404;23.498;2022-12-10T08:39:53;98812.97;;;-2.16;97.54
73594;BME280;64760;53.404;23.498;2022-12-10T08:42:19;98806.47;;;-2.21;97.76
73594;BME280;64760;53.404;23.498;2022-12-10T08:44:46;98816.13;;;-2.12;98.02
73594;BME280;64760;53.404;23.498;2022-12-10T08:47:12;98790.31;;;-2.36;97.63
73594;BME280;64760;53.404;23.498;2022-12-10T08:49:39;98803.97;;;-2.23;97.60
73594;BME280;64760;53.404;23.498;2022-12-10T08:52:05;98807.56;;;-2.24;97.89
73594;BME280;64760;53.404;23.498;2022-12-10T08:54:32;98810.03;;;-2.13;98.05
73594;BME280;64760;53.404;23.498;2022-12-10T08:56:59;98784.75;;;-2.04;97.12
73594;BME280;64760;53.404;23.498;2022-12-10T08:59:25;98793.88;;;-2.08;97.49
73594;BME280;64760;53.404;23.498;2022-12-10T09:01:53;98795.53;;;-2.17;96.79
73594;BME280;64760;53.404;23.498;2022-12-10T09:04:20;98802.03;;;-2.11;97.54
73594;BME280;64760;53.404;23.498;2022-12-10T09:06:46;98799.81;;;-1.97;97.28
73594;BME280;64760;53.404;23.498;2022-12-10T09:09:12;98786.56;;;-1.95;97.04
73594;BME280;64760;53.404;23.498;2022-12-10T09:11:39;98778.00;;;-2.26;97.09
73594;BME280;64760;53.404;23.498;2022-12-10T09:14:06;98799.97;;;-2.17;96.87
73594;BME280;64760;53.404;23.498;2022-12-10T09:16:36;98794.03;;;-2.29;96.59
73594;BME280;64760;53.404;23.498;2022-12-10T09:19:03;98782.69;;;-2.29;96.58
73594;BME280;64760;53.404;23.498;2022-12-10T09:21:30;98786.00;;;-2.18;96.77
73594;BME280;64760;53.404;23.498;2022-12-10T09:23:58;98792.38;;;-2.20;96.12
73594;BME280;64760;53.404;23.498;2022-12-10T09:26:25;98777.44;;;-2.29;95.91
73594;BME280;64760;53.404;23.498;2022-12-10T09:28:52;98776.06;;;-2.14;96.02
73594;BME280;64760;53.404;23.498;2022-12-10T09:31:19;98782.00;;;-2.12;95.99
73594;BME280;64760;53.404;23.498;2022-12-10T09:33:48;98786.28;;;-2.21;95.73
73594;BME280;64760;53.404;23.498;2022-12-10T09:36:14;98784.34;;;-2.09;95.49
73594;BME280;64760;53.404;23.498;2022-12-10T09:38:43;98786.00;;;-2.08;94.89
73594;BME280;64760;53.404;23.498;2022-12-10T09:43:41;98783.94;;;-2.05;94.05
73594;BME280;64760;53.404;23.498;2022-12-10T09:46:23;98785.97;;;-1.99;93.93
73594;BME280;64760;53.404;23.498;2022-12-10T09:51:28;98777.38;;;-1.81;94.01
73594;BME280;64760;53.404;23.498;2022-12-10T09:53:57;98772.25;;;-1.83;93.56
73594;BME280;64760;53.404;23.498;2022-12-10T09:56:33;98779.75;;;-1.88;93.79
73594;BME280;64760;53.404;23.498;2022-12-10T09:59:08;98771.06;;;-1.98;94.22
73594;BME280;64760;53.404;23.498;2022-12-10T10:01:37;98772.19;;;-2.01;95.07
73594;BME280;64760;53.404;23.498;2022-12-10T10:04:05;98753.81;;;-2.01;95.37
73594;BME280;64760;53.404;23.498;2022-12-10T10:06:32;98763.31;;;-1.90;94.96
73594;BME280;64760;53.404;23.498;2022-12-10T10:09:01;98771.06;;;-1.98;94.36
73594;BME280;64760;53.404;23.498;2022-12-10T10:11:32;98766.34;;;-1.95;94.21
73594;BME280;64760;53.404;23.498;2022-12-10T10:14:06;98768.97;;;-1.95;93.80
73594;BME280;64760;53.404;23.498;2022-12-10T10:16:43;98779.56;;;-1.67;93.45
73594;BME280;64760;53.404;23.498;2022-12-10T10:19:17;98761.22;;;-1.86;92.95
73594;BME280;64760;53.404;23.498;2022-12-10T10:21:48;98769.38;;;-1.80;92.90
73594;BME280;64760;53.404;23.498;2022-12-10T10:24:18;98754.88;;;-1.94;92.93
73594;BME280;64760;53.404;23.498;2022-12-10T10:26:45;98771.28;;;-1.82;92.08
73594;BME280;64760;53.404;23.498;2022-12-10T10:29:18;98771.09;;;-1.52;93.12
73594;BME280;64760;53.404;23.498;2022-12-10T10:31:46;98743.38;;;-1.46;92.62
73594;BME280;64760;53.404;23.498;2022-12-10T10:34:22;98765.53;;;-1.21;91.97
73594;BME280;64760;53.404;23.498;2022-12-10T10:37:00;98741.78;;;-1.29;91.24
73594;BME280;64760;53.404;23.498;2022-12-10T10:39:31;98745.34;;;-1.21;91.37
73594;BME280;64760;53.404;23.498;2022-12-10T10:41:59;98760.25;;;-1.12;91.06
73594;BME280;64760;53.404;23.498;2022-12-10T10:44:36;98751.13;;;-1.17;90.39
73594;BME280;64760;53.404;23.498;2022-12-10T10:47:24;98765.97;;;-0.99;90.43
73594;BME280;64760;53.404;23.498;2022-12-10T10:49:51;98762.38;;;-0.98;90.16
73594;BME280;64760;53.404;23.498;2022-12-10T10:52:17;98766.59;;;-0.87;89.28
73594;BME280;64760;53.404;23.498;2022-12-10T10:54:45;98770.47;;;-0.91;88.87
73594;BME280;64760;53.404;23.498;2022-12-10T10:59:47;98741.44;;;-1.17;88.70
73594;BME280;64760;53.404;23.498;2022-12-10T11:02:29;98767.22;;;-1.03;89.55
73594;BME280;64760;53.404;23.498;2022-12-10T11:04:57;98755.13;;;-1.13;89.04
73594;BME280;64760;53.404;23.498;2022-12-10T11:09:56;98745.28;;;-1.38;90.08
73594;BME280;64760;53.404;23.498;2022-12-10T11:12:39;98758.22;;;-1.27;90.46
73594;BME280;64760;53.404;23.498;2022-12-10T11:17:49;98747.28;;;-1.23;90.01
73594;BME280;64760;53.404;23.498;2022-12-10T11:29:20;98766.50;;;-1.22;89.67
73594;BME280;64760;53.404;23.498;2022-12-10T11:37:09;98763.13;;;-1.32;90.44
73594;BME280;64760;53.404;23.498;2022-12-10T11:50:36;98774.81;;;-1.27;90.28
73594;BME280;64760;53.404;23.498;2022-12-10T11:55:42;98752.69;;;-1.24;89.68
73594;BME280;64760;53.404;23.498;2022-12-10T11:58:45;98766.28;;;-1.29;90.33
73594;BME280;64760;53.404;23.498;2022-12-10T12:11:27;98773.94;;;-1.45;91.12
73594;BME280;64760;53.404;23.498;2022-12-10T12:14:08;98759.16;;;-1.46;91.05
73594;BME280;64760;53.404;23.498;2022-12-10T12:16:45;98759.56;;;-1.51;90.40
73594;BME280;64760;53.404;23.498;2022-12-10T12:19:21;98754.75;;;-1.55;90.65
73594;BME280;64760;53.404;23.498;2022-12-10T12:21:50;98750.50;;;-1.66;91.05
73594;BME280;64760;53.404;23.498;2022-12-10T12:24:24;98745.25;;;-1.66;90.97
73594;BME280;64760;53.404;23.498;2022-12-10T12:27:12;98752.59;;;-1.60;90.56
73594;BME280;64760;53.404;23.498;2022-12-10T12:32:35;98733.69;;;-1.46;88.24
73594;BME280;64760;53.404;23.498;2022-12-10T12:35:22;98748.09;;;-1.50;88.46
73594;BME280;64760;53.404;23.498;2022-12-10T12:38:01;98756.50;;;-1.36;87.96
73594;BME280;64760;53.404;23.498;2022-12-10T12:40:39;98769.09;;;-1.40;88.38
73594;BME280;64760;53.404;23.498;2022-12-10T12:43:14;98763.88;;;-1.50;89.01
73594;BME280;64760;53.404;23.498;2022-12-10T12:45:47;98754.72;;;-1.46;88.81
73594;BME280;64760;53.404;23.498;2022-12-10T12:48:28;98752.78;;;-1.44;88.49
73594;BME280;64760;53.404;23.498;2022-12-10T12:51:12;98750.84;;;-1.42;88.37
73594;BME280;64760;53.404;23.498;2022-12-10T12:53:42;98741.06;;;-1.49;88.69
73594;BME280;64760;53.404;23.498;2022-12-10T13:02:57;98751.56;;;-1.49;89.30
73594;BME280;64760;53.404;23.498;2022-12-10T13:05:35;98742.28;;;-1.44;88.94
73594;BME280;64760;53.404;23.498;2022-12-10T13:14:04;98744.00;;;-1.62;89.29
73594;BME280;64760;53.404;23.498;2022-12-10T13:27:18;98749.25;;;-1.62;89.79
73594;BME280;64760;53.404;23.498;2022-12-10T13:37:55;98779.34;;;-1.47;89.78
73594;BME280;64760;53.404;23.498;2022-12-10T13:46:25;98765.75;;;-1.79;90.35
73594;BME280;64760;53.404;23.498;2022-12-10T13:48:57;98774.88;;;-1.83;90.84
73594;BME280;64760;53.404;23.498;2022-12-10T13:51:46;98784.84;;;-1.77;90.91
73594;BME280;64760;53.404;23.498;2022-12-10T14:08:19;98797.50;;;-1.63;90.05
73594;BME280;64760;53.404;23.498;2022-12-10T14:10:47;98788.00;;;-1.64;89.78
73594;BME280;64760;53.404;23.498;2022-12-10T14:13:15;98794.75;;;-1.61;90.26
73594;BME280;64760;53.404;23.498;2022-12-10T14:15:53;98801.78;;;-1.62;90.64
73594;BME280;64760;53.404;23.498;2022-12-10T14:18:27;98794.22;;;-1.65;90.66
73594;BME280;64760;53.404;23.498;2022-12-10T14:20:54;98804.97;;;-1.58;90.76
73594;BME280;64760;53.404;23.498;2022-12-10T14:23:31;98798.34;;;-1.62;90.43
73594;BME280;64760;53.404;23.498;2022-12-10T14:26:26;98792.72;;;-1.77;90.91
73594;BME280;64760;53.404;23.498;2022-12-10T14:31:44;98797.28;;;-1.79;90.89
73594;BME280;64760;53.404;23.498;2022-12-10T14:34:17;98790.09;;;-1.86;91.52
73594;BME280;64760;53.404;23.498;2022-12-10T14:36:52;98793.84;;;-1.79;91.42
73594;BME280;64760;53.404;23.498;2022-12-10T14:39:30;98807.91;;;-1.71;91.55
73594;BME280;64760;53.404;23.498;2022-12-10T14:42:05;98815.47;;;-1.49;90.57
73594;BME280;64760;53.404;23.498;2022-12-10T14:44:36;98821.00;;;-1.52;90.89
73594;BME280;64760;53.404;23.498;2022-12-10T14:50:34;98816.78;;;-1.72;91.60
73594;BME280;64760;53.404;23.498;2022-12-10T14:53:05;98816.91;;;-1.83;91.64
73594;BME280;64760;53.404;23.498;2022-12-10T14:55:38;98805.59;;;-1.83;91.74
73594;BME280;64760;53.404;23.498;2022-12-10T14:58:05;98818.97;;;-1.67;91.76
73594;BME280;64760;53.404;23.498;2022-12-10T15:00:33;98820.19;;;-1.62;91.35
73594;BME280;64760;53.404;23.498;2022-12-10T15:03:02;98804.19;;;-1.78;91.46
73594;BME280;64760;53.404;23.498;2022-12-10T15:05:34;98814.41;;;-1.65;91.72
73594;BME280;64760;53.404;23.498;2022-12-10T15:08:15;98814.25;;;-1.64;91.09
73594;BME280;64760;53.404;23.498;2022-12-10T15:10:46;98820.06;;;-1.60;90.90
73594;BME280;64760;53.404;23.498;2022-12-10T15:13:27;98805.44;;;-1.82;91.59
73594;BME280;64760;53.404;23.498;2022-12-10T15:15:56;98818.53;;;-1.63;91.35
73594;BME280;64760;53.404;23.498;2022-12-10T15:18:30;98822.28;;;-1.65;91.12
73594;BME280;64760;53.404;23.498;2022-12-10T15:23:34;98796.31;;;-1.78;91.44
73594;BME280;64760;53.404;23.498;2022-12-10T15:26:22;98814.16;;;-1.72;91.53
73594;BME280;64760;53.404;23.498;2022-12-10T15:28:49;98808.88;;;-1.72;91.64
73594;BME280;64760;53.404;23.498;2022-12-10T15:36:20;98818.28;;;-1.79;92.27
73594;BME280;64760;53.404;23.498;2022-12-10T15:38:48;98810.72;;;-1.92;92.27
73594;BME280;64760;53.404;23.498;2022-12-10T15:47:04;98832.00;;;-1.85;92.51
73594;BME280;64760;53.404;23.498;2022-12-10T15:49:35;98826.31;;;-1.80;92.57
73594;BME280;64760;53.404;23.498;2022-12-10T15:52:01;98825.91;;;-1.76;92.29